Terminal Aerodrome Forecast
Issued by NWS

Home | Current Version | Previous Version | Text Only | Print | Product List | Glossary On
Versions: 1 2 3 4 5 6 7 8 9 10 11 12
163
FTUS43 KICT 241145
TAFHUT
TAF
KHUT 241145Z 2412/2512 15009KT P6SM BKN300
     FM241400 17013KT P6SM SCT050 OVC300
     FM241600 18022G26KT P6SM BKN040
     FM242100 19017KT P6SM SCT040 OVC070
     FM250000 17009KT P6SM SCT080 OVC250=

USA.gov is the U.S. government's official web portal to all federal, state and local government web resources and services.